createdAt,value
2023-05-11T00:01:54.739Z,13.35
2023-05-11T00:04:22.734Z,13.25
2023-05-11T00:06:50.976Z,13.11
2023-05-11T00:09:18.963Z,13.22
2023-05-11T00:11:46.996Z,13.20
2023-05-11T00:14:16.457Z,13.15
2023-05-11T00:16:44.491Z,13.09
2023-05-11T00:19:12.538Z,13.16
2023-05-11T00:21:40.822Z,13.03
2023-05-11T00:24:09.922Z,12.98
2023-05-11T00:26:38.056Z,13.00
2023-05-11T00:29:06.226Z,13.00
2023-05-11T00:31:36.016Z,13.10
2023-05-11T00:34:04.244Z,12.96
2023-05-11T00:36:33.302Z,12.93
2023-05-11T00:39:01.461Z,12.92
2023-05-11T00:41:29.483Z,12.85
2023-05-11T00:43:57.947Z,12.74
2023-05-11T00:46:26.303Z,12.76
2023-05-11T00:48:55.976Z,12.53
2023-05-11T00:51:24.035Z,12.71
2023-05-11T00:53:52.250Z,12.60
2023-05-11T00:56:21.621Z,12.73
2023-05-11T00:58:50.356Z,12.65
2023-05-11T01:01:19.015Z,12.63
2023-05-11T01:03:48.416Z,12.65
2023-05-11T01:06:26.713Z,12.57
2023-05-11T01:09:04.457Z,12.58
2023-05-11T01:11:42.265Z,12.59
2023-05-11T01:14:16.185Z,12.43
2023-05-11T01:16:51.552Z,12.39
2023-05-11T01:19:30.230Z,12.51
2023-05-11T01:22:01.256Z,12.37
2023-05-11T01:24:41.020Z,12.19
2023-05-11T01:27:33.127Z,12.23
2023-05-11T01:30:29.115Z,12.25
2023-05-11T01:33:00.952Z,12.34
2023-05-11T01:35:32.460Z,12.35
2023-05-11T01:38:02.444Z,12.32
2023-05-11T01:40:33.664Z,12.27
2023-05-11T01:43:05.305Z,12.27
2023-05-11T01:45:40.398Z,12.34
2023-05-11T01:48:15.119Z,12.21
2023-05-11T01:50:43.448Z,12.36
2023-05-11T01:53:13.482Z,12.23
2023-05-11T01:55:43.300Z,12.35
2023-05-11T01:58:16.596Z,12.28
2023-05-11T02:00:47.420Z,12.30
2023-05-11T02:03:17.633Z,12.15
2023-05-11T02:05:48.507Z,12.05
2023-05-11T02:08:18.132Z,12.07
2023-05-11T02:10:47.838Z,12.10
2023-05-11T02:13:18.998Z,11.99
2023-05-11T02:15:54.174Z,12.06
2023-05-11T02:18:23.039Z,11.85
2023-05-11T02:21:00.252Z,11.90
2023-05-11T02:23:29.291Z,11.98
2023-05-11T02:25:58.824Z,11.93
2023-05-11T02:28:27.264Z,11.93
2023-05-11T02:31:01.615Z,11.82
2023-05-11T02:33:35.605Z,11.91
2023-05-11T02:36:04.577Z,11.85
2023-05-11T02:38:36.541Z,11.90
2023-05-11T02:41:10.916Z,11.95
2023-05-11T02:43:44.771Z,11.91
2023-05-11T02:46:18.218Z,11.90
2023-05-11T02:48:50.618Z,11.99
2023-05-11T02:51:23.438Z,11.72
2023-05-11T02:53:56.067Z,11.78
2023-05-11T02:56:25.868Z,11.89
2023-05-11T02:58:55.956Z,11.80
2023-05-11T03:01:30.619Z,11.75
2023-05-11T03:03:59.630Z,11.82
2023-05-11T03:06:30.418Z,11.81
2023-05-11T03:08:58.771Z,11.60
2023-05-11T03:11:28.515Z,11.69
2023-05-11T03:13:57.202Z,11.76
2023-05-11T03:16:26.831Z,11.69
2023-05-11T03:18:56.749Z,11.79
2023-05-11T03:21:26.693Z,11.82
2023-05-11T03:23:55.939Z,11.91
2023-05-11T03:26:28.541Z,11.75
2023-05-11T03:28:58.387Z,11.67
2023-05-11T03:31:26.561Z,11.71
2023-05-11T03:33:56.193Z,11.72
2023-05-11T03:36:26.729Z,11.78
2023-05-11T03:38:57.698Z,11.81
2023-05-11T03:41:32.225Z,11.86
2023-05-11T03:44:03.023Z,11.86
2023-05-11T03:46:32.631Z,11.86
2023-05-11T03:49:05.936Z,11.77
2023-05-11T03:51:35.634Z,11.77
2023-05-11T03:54:03.979Z,11.94
2023-05-11T03:56:32.265Z,11.96
2023-05-11T03:59:00.678Z,11.96
2023-05-11T04:01:29.765Z,11.87
2023-05-11T04:03:58.029Z,11.91
2023-05-11T04:06:27.581Z,11.97
2023-05-11T04:09:04.293Z,11.99
2023-05-11T04:11:32.342Z,11.97
2023-05-11T04:14:00.407Z,12.04
2023-05-11T04:16:28.584Z,11.71
2023-05-11T04:18:56.866Z,11.87
2023-05-11T04:21:24.925Z,11.93
2023-05-11T04:23:54.404Z,12.08
2023-05-11T04:26:22.626Z,12.06
2023-05-11T04:28:50.649Z,12.21
2023-05-11T04:31:18.666Z,12.27
2023-05-11T04:33:47.190Z,11.98
2023-05-11T04:36:15.567Z,12.13
2023-05-11T04:38:43.813Z,12.24
2023-05-11T04:41:14.997Z,12.10
2023-05-11T04:43:43.628Z,12.34
2023-05-11T04:46:12.121Z,12.20
2023-05-11T04:48:40.533Z,12.11
2023-05-11T04:51:08.560Z,12.39
2023-05-11T04:53:42.414Z,12.00
2023-05-11T04:56:12.009Z,12.43
2023-05-11T04:58:41.416Z,12.50
2023-05-11T05:01:10.313Z,12.51
2023-05-11T05:03:38.785Z,12.29
2023-05-11T05:06:07.188Z,12.56
2023-05-11T05:08:35.269Z,12.69
2023-05-11T05:11:03.523Z,12.69
2023-05-11T05:13:31.753Z,12.79
2023-05-11T05:16:01.348Z,12.56
2023-05-11T05:18:29.721Z,12.83
2023-05-11T05:20:57.908Z,12.88
2023-05-11T05:23:26.563Z,12.85
2023-05-11T05:25:54.909Z,12.89
2023-05-11T05:28:23.977Z,12.93
2023-05-11T05:30:52.390Z,12.86
2023-05-11T05:33:22.301Z,12.96
2023-05-11T05:35:50.795Z,13.24
2023-05-11T05:38:20.415Z,13.28
2023-05-11T05:40:49.122Z,13.45
2023-05-11T05:43:17.560Z,13.63
2023-05-11T05:45:46.166Z,13.51
2023-05-11T05:48:14.271Z,13.80
2023-05-11T05:50:43.885Z,13.80
2023-05-11T05:53:12.063Z,13.73
2023-05-11T05:55:40.539Z,14.16
2023-05-11T05:58:08.832Z,14.20
2023-05-11T06:00:38.277Z,14.11
2023-05-11T06:03:10.136Z,14.38
2023-05-11T06:05:38.440Z,14.40
2023-05-11T06:08:11.132Z,14.41
2023-05-11T06:10:40.658Z,14.15
2023-05-11T06:13:10.813Z,14.60
2023-05-11T06:15:43.333Z,14.33
2023-05-11T06:18:23.777Z,14.34
2023-05-11T06:20:52.466Z,14.42
2023-05-11T06:23:22.141Z,14.64
2023-05-11T06:25:50.179Z,14.94
2023-05-11T06:28:18.485Z,15.06
2023-05-11T06:30:47.271Z,14.90
2023-05-11T06:33:15.327Z,15.11
2023-05-11T06:35:43.462Z,15.18
2023-05-11T06:38:13.990Z,15.03
2023-05-11T06:40:44.790Z,15.24
2023-05-11T06:43:13.056Z,15.00
2023-05-11T06:45:49.303Z,15.37
2023-05-11T06:48:18.110Z,15.58
2023-05-11T06:50:46.491Z,15.50
2023-05-11T06:53:17.145Z,15.76
2023-05-11T06:55:46.754Z,15.99
2023-05-11T06:58:15.008Z,15.89
2023-05-11T07:00:45.824Z,16.06
2023-05-11T07:03:13.983Z,16.33
2023-05-11T07:05:42.121Z,16.46
2023-05-11T07:08:10.209Z,16.42
2023-05-11T07:10:38.347Z,16.46
2023-05-11T07:13:07.688Z,16.70
2023-05-11T07:15:36.202Z,17.01
2023-05-11T07:18:04.848Z,16.77
2023-05-11T07:20:32.875Z,17.02
2023-05-11T07:23:00.999Z,16.99
2023-05-11T07:25:29.118Z,16.97
2023-05-11T07:27:57.397Z,17.10
2023-05-11T07:30:26.880Z,17.12
2023-05-11T07:32:55.025Z,17.19
2023-05-11T07:35:24.128Z,17.12
2023-05-11T07:37:52.508Z,17.45
2023-05-11T07:40:20.862Z,17.51
2023-05-11T07:42:49.109Z,17.72
2023-05-11T07:45:17.158Z,17.83
2023-05-11T07:47:46.549Z,17.96
2023-05-11T07:50:14.605Z,18.22
2023-05-11T07:52:42.749Z,17.96
2023-05-11T07:55:11.097Z,17.69
2023-05-11T07:57:39.186Z,18.15
2023-05-11T08:00:10.857Z,18.18
2023-05-11T08:02:42.170Z,18.38
2023-05-11T08:05:14.253Z,18.48
2023-05-11T08:07:42.569Z,18.54
2023-05-11T08:10:11.464Z,18.68
2023-05-11T08:12:39.885Z,18.77
2023-05-11T08:15:08.891Z,18.99
2023-05-11T08:17:37.573Z,19.03
2023-05-11T08:20:06.862Z,19.15
2023-05-11T08:22:36.437Z,18.90
2023-05-11T08:25:05.683Z,19.14
2023-05-11T08:27:33.742Z,19.40
2023-05-11T08:30:01.758Z,19.60
2023-05-11T08:32:30.452Z,19.60
2023-05-11T08:34:59.032Z,19.98
2023-05-11T08:37:27.134Z,20.09
2023-05-11T08:39:56.585Z,19.98
2023-05-11T08:42:26.118Z,20.00
2023-05-11T08:44:57.483Z,20.12
2023-05-11T08:47:25.518Z,20.05
2023-05-11T08:49:54.184Z,20.11
2023-05-11T08:52:22.227Z,20.25
2023-05-11T08:54:50.422Z,20.63
2023-05-11T08:57:21.141Z,20.38
2023-05-11T08:59:50.388Z,20.38
2023-05-11T09:02:19.742Z,20.61
2023-05-11T09:04:49.277Z,20.70
2023-05-11T09:07:18.805Z,20.98
2023-05-11T09:09:48.036Z,21.10
2023-05-11T09:12:17.156Z,21.20
2023-05-11T09:14:47.680Z,21.00
2023-05-11T09:17:15.768Z,21.10
2023-05-11T09:20:00.654Z,20.84
2023-05-11T09:22:31.471Z,20.97
2023-05-11T09:25:01.813Z,20.82
2023-05-11T09:27:29.863Z,21.14
2023-05-11T09:30:11.663Z,21.17
2023-05-11T09:32:48.541Z,21.11
2023-05-11T09:35:24.108Z,21.00
2023-05-11T09:38:04.792Z,21.31
2023-05-11T09:40:34.918Z,21.57
2023-05-11T09:43:04.075Z,21.20
2023-05-11T09:45:40.937Z,21.34
2023-05-11T09:48:24.764Z,21.51
2023-05-11T09:50:59.545Z,21.26
2023-05-11T09:53:36.085Z,21.49
2023-05-11T09:56:04.856Z,20.98
2023-05-11T09:58:47.790Z,21.68
2023-05-11T10:01:18.462Z,21.63
2023-05-11T10:03:52.215Z,21.87
2023-05-11T10:06:21.174Z,21.85
2023-05-11T10:08:50.156Z,21.93
2023-05-11T10:11:18.335Z,21.80
2023-05-11T10:13:46.834Z,21.95
2023-05-11T10:16:17.719Z,21.71
2023-05-11T10:18:46.988Z,22.13
2023-05-11T10:21:16.740Z,22.01
2023-05-11T10:23:44.897Z,21.95
2023-05-11T10:26:14.551Z,21.96
2023-05-11T10:28:42.827Z,22.69
2023-05-11T10:31:11.806Z,23.15
2023-05-11T10:33:42.583Z,22.60
2023-05-11T10:36:12.306Z,22.63
2023-05-11T10:38:40.602Z,22.97
2023-05-11T10:41:26.757Z,23.29
2023-05-11T10:44:36.019Z,23.16
2023-05-11T10:47:23.857Z,23.27
2023-05-11T10:50:24.270Z,23.81
2023-05-11T10:53:09.255Z,23.05
2023-05-11T10:55:53.830Z,23.69
2023-05-11T10:58:36.607Z,23.71
2023-05-11T11:01:32.243Z,23.55
2023-05-11T11:04:02.962Z,23.08
2023-05-11T11:06:32.149Z,22.83
2023-05-11T11:09:02.912Z,23.40
2023-05-11T11:11:33.478Z,22.77
2023-05-11T11:14:03.779Z,23.19
2023-05-11T11:16:31.994Z,23.63
2023-05-11T11:19:38.041Z,23.84
2023-05-11T11:22:07.047Z,23.76
2023-05-11T11:24:47.264Z,24.37
2023-05-11T11:27:15.947Z,24.32
2023-05-11T11:30:19.608Z,24.37
2023-05-11T11:32:48.320Z,24.44
2023-05-11T11:35:47.348Z,24.53
2023-05-11T11:38:17.402Z,24.29
2023-05-11T11:40:51.943Z,24.73
2023-05-11T11:43:22.643Z,24.79
2023-05-11T11:45:55.024Z,24.99
2023-05-11T11:48:25.073Z,23.53
2023-05-11T11:51:04.146Z,24.45
2023-05-11T11:54:08.950Z,25.38
2023-05-11T11:56:46.044Z,25.75
2023-05-11T11:59:16.149Z,25.64
2023-05-11T12:01:48.624Z,25.88
2023-05-11T12:04:52.098Z,27.09
2023-05-11T12:07:21.717Z,26.90
2023-05-11T12:09:50.480Z,26.76
2023-05-11T12:12:21.061Z,26.75
2023-05-11T12:14:52.314Z,27.34
2023-05-11T12:17:28.384Z,28.06
2023-05-11T12:20:11.769Z,28.70
2023-05-11T12:22:39.934Z,28.14
2023-05-11T12:25:09.015Z,28.78
2023-05-11T12:27:48.033Z,29.01
2023-05-11T12:30:26.796Z,29.40
2023-05-11T12:32:57.194Z,29.88
2023-05-11T12:35:27.047Z,28.98
2023-05-11T12:37:55.975Z,29.26
2023-05-11T12:40:24.497Z,29.46
2023-05-11T12:42:54.607Z,30.09
2023-05-11T12:45:23.596Z,30.25
2023-05-11T12:47:53.051Z,30.08
2023-05-11T12:50:22.086Z,29.87
2023-05-11T12:52:50.463Z,29.89
2023-05-11T12:55:28.792Z,30.19
2023-05-11T12:58:10.061Z,29.70
2023-05-11T13:00:38.655Z,30.39
2023-05-11T13:03:07.891Z,30.69
2023-05-11T13:05:36.158Z,29.82
2023-05-11T13:08:05.921Z,30.05
2023-05-11T13:10:33.976Z,30.26
2023-05-11T13:13:02.076Z,30.21
2023-05-11T13:15:31.790Z,30.12
2023-05-11T13:18:03.438Z,30.04
2023-05-11T13:20:33.072Z,29.69
2023-05-11T13:23:06.297Z,28.91
2023-05-11T13:25:35.154Z,29.66
2023-05-11T13:28:03.495Z,29.39
2023-05-11T13:30:34.721Z,29.05
2023-05-11T13:33:03.339Z,29.12
2023-05-11T13:35:31.485Z,29.36
2023-05-11T13:37:59.835Z,28.94
2023-05-11T13:40:27.921Z,28.59
2023-05-11T13:42:56.839Z,28.44
2023-05-11T13:45:25.018Z,29.36
2023-05-11T13:47:55.374Z,29.42
2023-05-11T13:50:23.728Z,30.05
2023-05-11T13:52:52.008Z,30.12
2023-05-11T13:55:21.109Z,29.86
2023-05-11T13:57:49.609Z,30.20
2023-05-11T14:00:19.568Z,29.92
2023-05-11T14:02:49.909Z,29.90
2023-05-11T14:05:19.761Z,30.34
2023-05-11T14:07:49.194Z,30.43
2023-05-11T14:10:18.122Z,30.17
2023-05-11T14:12:47.056Z,30.41
2023-05-11T14:15:15.324Z,30.29
2023-05-11T14:17:45.839Z,30.12
2023-05-11T14:20:15.687Z,29.78
2023-05-11T14:22:45.188Z,29.58
2023-05-11T14:25:13.353Z,29.86
2023-05-11T14:27:41.494Z,30.39
2023-05-11T14:30:10.801Z,28.07
2023-05-11T14:32:39.004Z,28.32
2023-05-11T14:35:07.444Z,28.20
2023-05-11T14:37:35.991Z,28.71
2023-05-11T14:40:06.476Z,28.07
2023-05-11T14:42:34.626Z,28.71
2023-05-11T14:45:02.668Z,29.00
2023-05-11T14:47:30.828Z,28.96
2023-05-11T14:49:58.992Z,29.21
2023-05-11T14:52:27.052Z,28.77
2023-05-11T14:54:55.143Z,28.88
2023-05-11T14:57:25.176Z,29.24
2023-05-11T14:59:59.740Z,29.75
2023-05-11T15:02:29.985Z,29.48
2023-05-11T15:04:58.530Z,29.48
2023-05-11T15:07:26.971Z,29.84
2023-05-11T15:09:56.097Z,30.12
2023-05-11T15:12:25.574Z,30.31
2023-05-11T15:14:53.682Z,30.13
2023-05-11T15:17:21.795Z,29.86
2023-05-11T15:19:49.913Z,30.80
2023-05-11T15:22:19.319Z,29.72
2023-05-11T15:24:48.078Z,29.44
2023-05-11T15:27:16.453Z,29.03
2023-05-11T15:29:46.023Z,28.61
2023-05-11T15:32:17.268Z,28.13
2023-05-11T15:34:58.463Z,28.60
2023-05-11T15:37:28.351Z,29.04
2023-05-11T15:39:56.480Z,27.67
2023-05-11T15:42:24.578Z,27.98
2023-05-11T15:44:54.123Z,27.93
2023-05-11T15:47:22.354Z,28.38
2023-05-11T15:49:50.407Z,28.31
2023-05-11T15:52:19.156Z,28.60
2023-05-11T15:54:47.252Z,28.68
2023-05-11T15:57:15.258Z,29.28
2023-05-11T15:59:43.330Z,29.14
2023-05-11T16:02:12.957Z,28.61
2023-05-11T16:04:41.418Z,28.06
2023-05-11T16:07:09.492Z,28.26
2023-05-11T16:09:37.577Z,27.71
2023-05-11T16:12:06.145Z,28.48
2023-05-11T16:14:34.276Z,28.37
2023-05-11T16:17:03.006Z,28.90
2023-05-11T16:19:35.222Z,28.35
2023-05-11T16:22:03.352Z,28.10
2023-05-11T16:24:34.329Z,28.29
2023-05-11T16:27:03.007Z,28.61
2023-05-11T16:29:32.161Z,28.74
2023-05-11T16:32:00.646Z,28.56
2023-05-11T16:34:28.924Z,28.42
2023-05-11T16:36:59.363Z,28.60
2023-05-11T16:39:27.669Z,28.70
2023-05-11T16:41:55.838Z,28.52
2023-05-11T16:44:24.707Z,28.35
2023-05-11T16:46:53.544Z,27.79
2023-05-11T16:49:21.720Z,28.02
2023-05-11T16:51:49.839Z,28.19
2023-05-11T16:54:19.313Z,27.95
2023-05-11T16:56:47.544Z,27.03
2023-05-11T16:59:15.630Z,26.80
2023-05-11T17:01:45.362Z,27.69
2023-05-11T17:04:14.296Z,27.23
2023-05-11T17:06:42.508Z,26.95
2023-05-11T17:09:10.628Z,26.80
2023-05-11T17:11:40.060Z,26.84
2023-05-11T17:14:08.174Z,26.63
2023-05-11T17:16:36.365Z,26.39
2023-05-11T17:19:04.581Z,25.68
2023-05-11T17:21:32.691Z,25.76
2023-05-11T17:24:00.825Z,26.11
2023-05-11T17:26:39.619Z,25.71
2023-05-11T17:29:16.628Z,25.68
2023-05-11T17:31:46.716Z,25.49
2023-05-11T17:34:15.026Z,25.09
2023-05-11T17:36:43.144Z,25.44
2023-05-11T17:39:11.307Z,25.64
2023-05-11T17:41:39.651Z,25.53
2023-05-11T17:44:08.308Z,25.79
2023-05-11T17:46:38.356Z,25.68
2023-05-11T17:49:06.912Z,25.37
2023-05-11T17:51:35.018Z,25.27
2023-05-11T17:54:03.057Z,25.11
2023-05-11T17:56:31.499Z,24.94
2023-05-11T17:58:59.635Z,24.80
2023-05-11T18:01:28.502Z,24.74
2023-05-11T18:03:59.128Z,24.30
2023-05-11T18:06:28.370Z,24.51
2023-05-11T18:08:56.642Z,23.83
2023-05-11T18:11:24.771Z,23.72
2023-05-11T18:13:52.906Z,23.36
2023-05-11T18:16:21.018Z,23.18
2023-05-11T18:18:49.169Z,22.91
2023-05-11T18:21:19.134Z,22.78
2023-05-11T18:23:47.263Z,22.46
2023-05-11T18:26:16.238Z,22.18
2023-05-11T18:28:44.253Z,21.96
2023-05-11T18:31:12.450Z,21.77
2023-05-11T18:33:40.648Z,21.60
2023-05-11T18:36:08.969Z,21.41
2023-05-11T18:38:38.570Z,21.13
2023-05-11T18:41:07.310Z,21.14
2023-05-11T18:43:35.516Z,20.96
2023-05-11T18:46:08.569Z,20.68
2023-05-11T18:48:36.923Z,20.45
2023-05-11T18:51:05.163Z,20.48
2023-05-11T18:53:33.749Z,20.61
2023-05-11T18:56:03.240Z,20.49
2023-05-11T18:58:31.814Z,20.24
2023-05-11T19:00:59.869Z,19.78
2023-05-11T19:03:28.738Z,20.00
2023-05-11T19:05:57.017Z,19.80
2023-05-11T19:08:25.175Z,19.49
2023-05-11T19:10:53.211Z,19.58
2023-05-11T19:13:23.178Z,19.33
2023-05-11T19:15:51.259Z,19.13
2023-05-11T19:18:19.453Z,19.09
2023-05-11T19:20:47.674Z,18.94
2023-05-11T19:23:15.945Z,18.80
2023-05-11T19:25:44.113Z,18.72
2023-05-11T19:28:12.436Z,18.40
2023-05-11T19:30:41.883Z,18.77
2023-05-11T19:33:10.039Z,18.67
2023-05-11T19:35:38.238Z,18.54
2023-05-11T19:38:07.330Z,18.55
2023-05-11T19:43:07.928Z,18.49
2023-05-11T19:45:37.614Z,18.32
2023-05-11T19:48:07.329Z,18.15
2023-05-11T19:50:35.529Z,17.97
2023-05-11T19:53:03.544Z,18.16
2023-05-11T19:55:31.572Z,17.92
2023-05-11T19:58:00.049Z,17.99
2023-05-11T20:00:28.119Z,17.80
2023-05-11T20:02:57.266Z,17.96
2023-05-11T20:05:26.881Z,18.07
2023-05-11T20:07:54.889Z,17.86
2023-05-11T20:10:22.995Z,17.81
2023-05-11T20:12:51.414Z,17.57
2023-05-11T20:15:19.853Z,17.75
2023-05-11T20:17:48.059Z,17.69
2023-05-11T20:20:16.179Z,17.71
2023-05-11T20:22:45.814Z,17.53
2023-05-11T20:25:18.333Z,17.60
2023-05-11T20:27:46.652Z,17.64
2023-05-11T20:30:15.243Z,17.42
2023-05-11T20:34:06.904Z,17.34
2023-05-11T20:35:32.914Z,17.38
2023-05-11T20:38:02.477Z,17.44
2023-05-11T20:40:30.745Z,17.30
2023-05-11T20:42:58.797Z,17.03
2023-05-11T20:45:28.171Z,17.10
2023-05-11T20:47:56.274Z,17.17
2023-05-11T20:50:24.719Z,17.29
2023-05-11T20:52:52.901Z,17.24
2023-05-11T20:55:22.693Z,17.13
2023-05-11T20:57:50.786Z,17.24
2023-05-11T21:00:19.059Z,17.05
2023-05-11T21:02:47.408Z,16.91
2023-05-11T21:05:15.704Z,16.94
2023-05-11T21:07:43.761Z,16.58
2023-05-11T21:10:13.003Z,16.93
2023-05-11T21:12:42.568Z,16.81
2023-05-11T21:15:11.512Z,16.80
2023-05-11T21:17:39.577Z,16.76
2023-05-11T21:20:08.981Z,16.69
2023-05-11T21:22:38.353Z,16.61
2023-05-11T21:25:07.297Z,16.73
2023-05-11T21:27:35.303Z,16.53
2023-05-11T21:30:05.366Z,16.54
2023-05-11T21:32:33.589Z,16.50
2023-05-11T21:35:01.582Z,16.41
2023-05-11T21:37:33.453Z,16.50
2023-05-11T21:40:01.939Z,16.47
2023-05-11T21:42:34.517Z,16.52
2023-05-11T21:45:04.838Z,16.49
2023-05-11T21:47:32.956Z,16.41
2023-05-11T21:50:01.032Z,16.32
2023-05-11T21:52:29.124Z,16.34
2023-05-11T21:54:57.157Z,16.33
2023-05-11T21:57:25.336Z,16.33
2023-05-11T21:59:53.460Z,16.14
2023-05-11T22:02:22.840Z,16.14
2023-05-11T22:04:50.789Z,16.26
2023-05-11T22:07:20.004Z,16.21
2023-05-11T22:09:48.160Z,16.11
2023-05-11T22:12:16.138Z,16.06
2023-05-11T22:14:44.164Z,16.04
2023-05-11T22:17:12.267Z,15.74
2023-05-11T22:19:41.679Z,15.83
2023-05-11T22:22:09.823Z,15.87
2023-05-11T22:24:37.927Z,15.89
2023-05-11T22:27:08.623Z,15.73
2023-05-11T22:29:36.653Z,15.70
2023-05-11T22:32:04.864Z,15.68
2023-05-11T22:34:33.052Z,15.80
2023-05-11T22:37:03.518Z,15.63
2023-05-11T22:39:31.542Z,15.64
2023-05-11T22:41:59.608Z,15.58
2023-05-11T22:44:27.906Z,15.66
2023-05-11T22:46:59.172Z,15.47
2023-05-11T22:49:27.211Z,15.51
2023-05-11T22:51:58.618Z,15.43
2023-05-11T22:54:28.271Z,15.13
2023-05-11T22:56:57.388Z,15.28
2023-05-11T22:59:25.489Z,15.20
2023-05-11T23:01:55.321Z,15.23
2023-05-11T23:04:23.312Z,14.94
2023-05-11T23:06:51.370Z,15.14
2023-05-11T23:09:19.779Z,15.15
2023-05-11T23:11:49.360Z,15.23
2023-05-11T23:14:17.579Z,15.17
2023-05-11T23:16:45.603Z,15.00
2023-05-11T23:19:13.599Z,14.67
2023-05-11T23:21:41.707Z,14.98
2023-05-11T23:24:09.808Z,15.03
2023-05-11T23:26:38.873Z,14.92
2023-05-11T23:29:08.626Z,14.78
2023-05-11T23:31:36.864Z,14.74
2023-05-11T23:34:05.078Z,14.71
2023-05-11T23:36:33.704Z,14.71
2023-05-11T23:39:01.719Z,14.70
2023-05-11T23:41:29.709Z,14.63
2023-05-11T23:43:57.864Z,14.57
2023-05-11T23:46:27.382Z,14.48
2023-05-11T23:48:55.920Z,14.43
2023-05-11T23:51:23.933Z,14.43
2023-05-11T23:53:51.925Z,14.42
2023-05-11T23:56:19.898Z,14.31
2023-05-11T23:58:48.271Z,14.25
